Time;durP1;ratioP1;P1;durP2;ratioP2;P2;SDS_P1;SDS_P2;PMS_P1;PMS_P2;Temp;Humidity;BMP_temperature;BMP_pressure;BME280_temperature;BME280_humidity;BME280_pressure;Samples;Min_cycle;Max_cycle;Signal;HPM_P1;HPM_P2
2021/08/22 00:01:40;;;;;;;12.35;6.70;;;19.20;87.60;;;;;;6276858;28;20413;-81
2021/08/22 00:04:42;;;;;;;14.02;7.43;;;19.10;87.90;;;;;;6278145;28;20463;-82
2021/08/22 00:07:45;;;;;;;8.70;6.25;;;19.00;88.20;;;;;;6276740;28;20448;-81
2021/08/22 00:10:47;;;;;;;14.55;6.93;;;18.90;88.20;;;;;;6270367;28;20431;-80
2021/08/22 00:13:48;;;;;;;11.20;6.13;;;18.80;88.90;;;;;;6252370;28;20470;-81
2021/08/22 00:16:50;;;;;;;9.75;6.72;;;18.80;88.50;;;;;;6252448;28;20446;-81
2021/08/22 00:19:52;;;;;;;9.52;5.43;;;19.30;89.80;;;;;;6251232;28;20466;-81
2021/08/22 00:22:55;;;;;;;8.70;5.47;;;18.70;88.80;;;;;;6250729;28;20526;-82
2021/08/22 00:25:57;;;;;;;10.70;5.60;;;19.90;89.90;;;;;;6251765;28;20513;-81
2021/08/22 00:28:59;;;;;;;14.43;7.05;;;18.50;89.10;;;;;;6250781;28;20774;-82
2021/08/22 00:32:01;;;;;;;10.95;5.95;;;18.40;90.20;;;;;;6249974;28;20498;-81
2021/08/22 00:35:03;;;;;;;10.45;6.63;;;18.40;90.10;;;;;;6250767;28;20500;-82
2021/08/22 00:38:06;;;;;;;10.00;5.65;;;18.40;90.10;;;;;;6251452;28;20502;-82
2021/08/22 00:41:08;;;;;;;8.18;4.93;;;18.40;89.70;;;;;;6250750;28;20812;-82
2021/08/22 00:44:10;;;;;;;7.97;6.05;;;18.40;89.70;;;;;;6251132;28;20423;-82
2021/08/22 00:47:12;;;;;;;7.75;5.45;;;18.40;90.40;;;;;;6251499;28;20426;-82
2021/08/22 00:50:15;;;;;;;12.38;6.38;;;18.40;90.00;;;;;;6251645;28;20426;-82
2021/08/22 00:53:18;;;;;;;13.00;6.43;;;18.40;90.10;;;;;;6250841;28;20506;-82
2021/08/22 00:56:20;;;;;;;13.83;6.20;;;18.60;90.10;;;;;;6250773;28;20553;-83
2021/08/22 00:59:22;;;;;;;11.00;5.80;;;18.60;89.90;;;;;;6251374;28;21078;-82
2021/08/22 01:02:29;;;;;;;10.20;6.10;;;18.60;89.80;;;;;;6250486;28;20939;-83
2021/08/22 01:05:44;;;;;;;10.02;6.03;;;18.60;89.60;;;;;;6251287;28;20411;-82
2021/08/22 01:08:55;;;;;;;10.00;5.75;;;18.70;89.50;;;;;;6251184;28;20438;-83
2021/08/22 01:11:59;;;;;;;8.27;5.07;;;18.70;89.20;;;;;;6250974;28;20599;-82
2021/08/22 01:15:05;;;;;;;11.90;5.75;;;18.70;89.00;;;;;;6251910;28;20477;-81
2021/08/22 01:18:12;;;;;;;8.45;4.93;;;18.60;89.80;;;;;;6252299;28;20427;-83
2021/08/22 01:21:15;;;;;;;7.37;4.57;;;18.60;88.80;;;;;;6251633;28;20419;-82
2021/08/22 01:24:23;;;;;;;11.40;5.78;;;18.60;89.00;;;;;;6251037;28;20851;-83
2021/08/22 01:27:26;;;;;;;7.82;5.22;;;18.60;89.20;;;;;;6251245;28;20470;-81
2021/08/22 01:30:28;;;;;;;9.70;5.17;;;18.60;89.10;;;;;;6251776;28;20422;-82
2021/08/22 01:33:32;;;;;;;10.18;6.30;;;18.70;88.80;;;;;;6250019;28;20473;-83
2021/08/22 01:36:35;;;;;;;11.32;6.22;;;18.80;89.00;;;;;;6251619;28;20411;-83
2021/08/22 01:39:39;;;;;;;11.23;6.03;;;18.80;89.00;;;;;;6251527;28;20943;-82
2021/08/22 01:42:42;;;;;;;10.00;5.60;;;19.10;89.20;;;;;;6250017;28;20536;-81
2021/08/22 01:45:45;;;;;;;7.57;5.88;;;18.80;89.10;;;;;;6249791;28;20937;-81
2021/08/22 01:48:48;;;;;;;7.47;5.97;;;18.90;89.50;;;;;;6250464;28;20496;-81
2021/08/22 01:51:50;;;;;;;8.40;4.97;;;18.90;89.30;;;;;;6250823;28;20435;-81
2021/08/22 01:54:52;;;;;;;7.72;4.82;;;18.90;89.00;;;;;;6249976;28;20458;-81
2021/08/22 01:57:54;;;;;;;8.70;5.55;;;19.00;89.00;;;;;;6250938;28;20466;-81
2021/08/22 02:00:56;;;;;;;13.57;5.72;;;19.00;89.00;;;;;;6250102;28;20936;-82
2021/08/22 02:04:07;;;;;;;6.33;4.77;;;19.00;89.30;;;;;;6250731;28;20812;-81
2021/08/22 02:07:12;;;;;;;7.40;5.15;;;19.00;89.40;;;;;;6249463;28;20784;-81
2021/08/22 02:10:18;;;;;;;10.32;5.22;;;19.00;88.70;;;;;;6251734;28;20485;-82
2021/08/22 02:13:25;;;;;;;6.07;4.28;;;19.00;88.30;;;;;;6250948;28;20425;-82
2021/08/22 02:16:29;;;;;;;7.15;4.75;;;19.20;88.40;;;;;;6250650;28;20502;-81
2021/08/22 02:19:34;;;;;;;6.53;4.57;;;18.90;87.90;;;;;;6251444;28;20415;-83
2021/08/22 02:22:41;;;;;;;7.43;5.10;;;18.80;87.70;;;;;;6251458;28;20462;-83
2021/08/22 02:25:44;;;;;;;6.40;4.47;;;18.80;88.00;;;;;;6256388;28;20449;-83
2021/08/22 02:28:52;;;;;;;7.35;4.60;;;18.70;88.00;;;;;;6255682;28;20431;-81
2021/08/22 02:31:54;;;;;;;7.00;4.47;;;18.70;88.70;;;;;;6255570;28;20419;-82
2021/08/22 02:34:57;;;;;;;7.15;4.80;;;18.70;88.50;;;;;;6254993;28;20443;-82
2021/08/22 02:37:59;;;;;;;6.45;4.50;;;18.80;88.90;;;;;;6254871;28;20431;-82
2021/08/22 02:41:01;;;;;;;5.90;4.10;;;18.80;88.50;;;;;;6255568;28;21073;-83
2021/08/22 02:44:03;;;;;;;8.25;4.00;;;18.70;87.80;;;;;;6256090;28;20596;-82
2021/08/22 02:47:05;;;;;;;6.73;4.60;;;18.70;87.70;;;;;;6255791;28;21008;-82
2021/08/22 02:50:09;;;;;;;7.85;4.95;;;19.10;87.70;;;;;;6256925;28;20866;-82
2021/08/22 02:53:11;;;;;;;6.20;4.00;;;18.60;88.00;;;;;;6257934;28;20431;-82
2021/08/22 02:56:13;;;;;;;12.25;5.75;;;18.60;88.20;;;;;;6258107;28;20467;-82
2021/08/22 02:59:15;;;;;;;7.15;5.07;;;18.50;88.20;;;;;;6259053;28;20835;-82
2021/08/22 03:02:17;;;;;;;9.73;5.20;;;18.60;88.80;;;;;;6259945;28;20431;-83
2021/08/22 03:05:20;;;;;;;7.47;5.10;;;18.50;88.30;;;;;;6264317;28;20438;-81
2021/08/22 03:08:22;;;;;;;9.02;5.50;;;18.50;87.90;;;;;;6263229;28;20445;-82
2021/08/22 03:11:24;;;;;;;8.40;5.32;;;18.40;88.30;;;;;;6253803;28;20995;-82
2021/08/22 03:14:26;;;;;;;11.33;6.07;;;18.30;88.00;;;;;;6254545;28;20525;-82
2021/08/22 03:17:28;;;;;;;10.80;6.82;;;18.40;88.40;;;;;;6253644;28;20423;-83
2021/08/22 03:20:31;;;;;;;9.80;5.50;;;18.40;89.20;;;;;;6253013;28;20446;-82
2021/08/22 03:23:33;;;;;;;8.82;6.20;;;18.40;88.70;;;;;;6252807;28;20497;-82
2021/08/22 03:26:35;;;;;;;11.40;6.53;;;18.40;88.60;;;;;;6253054;28;20807;-82
2021/08/22 03:29:36;;;;;;;8.07;5.93;;;18.40;88.70;;;;;;6252241;28;20454;-81
2021/08/22 03:32:38;;;;;;;13.68;7.80;;;18.40;88.70;;;;;;6252369;28;20879;-82
2021/08/22 03:35:41;;;;;;;19.10;7.80;;;18.50;89.30;;;;;;6251004;28;20430;-82
2021/08/22 03:38:43;;;;;;;12.68;6.45;;;18.50;88.80;;;;;;6253733;28;21062;-82
2021/08/22 03:41:45;;;;;;;8.87;6.27;;;18.60;88.50;;;;;;6252536;28;20518;-82
2021/08/22 03:44:47;;;;;;;10.90;6.35;;;18.60;88.30;;;;;;6252293;28;20454;-82
2021/08/22 03:47:49;;;;;;;12.55;7.45;;;18.60;88.70;;;;;;6252224;28;20498;-81
2021/08/22 03:50:52;;;;;;;12.48;7.32;;;18.70;88.60;;;;;;6252449;28;20427;-82
2021/08/22 03:53:54;;;;;;;13.40;8.27;;;18.80;88.40;;;;;;6252266;28;20485;-82
2021/08/22 03:56:56;;;;;;;16.73;7.70;;;18.80;88.40;;;;;;6250385;28;20512;-80
2021/08/22 03:59:57;;;;;;;9.07;6.72;;;18.80;88.00;;;;;;6250615;28;20517;-81
2021/08/22 04:02:59;;;;;;;12.70;6.53;;;18.80;88.00;;;;;;6250385;28;20438;-80
2021/08/22 04:06:02;;;;;;;11.73;7.00;;;18.80;87.80;;;;;;6250190;28;20537;-80
2021/08/22 04:09:05;;;;;;;10.23;6.13;;;18.80;87.70;;;;;;6250298;28;20416;-80
2021/08/22 04:12:07;;;;;;;11.10;6.60;;;18.90;87.90;;;;;;6250603;28;20427;-80
2021/08/22 04:15:10;;;;;;;11.00;7.10;;;18.90;87.70;;;;;;6250654;28;20435;-80
2021/08/22 04:18:12;;;;;;;9.95;6.30;;;19.00;87.70;;;;;;6250486;28;20470;-81
2021/08/22 04:21:15;;;;;;;10.02;6.80;;;19.00;87.80;;;;;;6251031;28;20527;-81
2021/08/22 04:24:17;;;;;;;11.82;7.82;;;19.00;87.10;;;;;;6250903;28;20423;-81
2021/08/22 04:27:19;;;;;;;14.40;7.70;;;19.00;87.10;;;;;;6251098;28;20772;-81
2021/08/22 04:30:20;;;;;;;17.95;7.70;;;19.00;87.00;;;;;;6251654;28;20426;-81
2021/08/22 04:33:22;;;;;;;15.13;7.65;;;19.00;87.40;;;;;;6250436;28;20411;-80
2021/08/22 04:36:25;;;;;;;8.87;6.23;;;19.10;87.30;;;;;;6251132;28;20415;-80
2021/08/22 04:39:27;;;;;;;13.18;7.38;;;19.10;87.10;;;;;;6250934;28;20465;-80
2021/08/22 04:42:29;;;;;;;12.30;7.70;;;19.20;87.20;;;;;;6251198;28;20563;-81
2021/08/22 04:45:31;;;;;;;13.50;7.38;;;19.20;87.20;;;;;;6249969;28;20473;-80
2021/08/22 04:48:33;;;;;;;11.05;6.57;;;19.30;87.00;;;;;;6250489;28;20557;-81
2021/08/22 04:51:36;;;;;;;10.00;6.00;;;19.30;86.90;;;;;;6250451;28;20446;-81
2021/08/22 04:54:38;;;;;;;9.65;6.80;;;19.40;87.10;;;;;;6251087;28;20565;-80
2021/08/22 04:57:40;;;;;;;10.00;6.75;;;19.40;87.10;;;;;;6249924;28;20473;-80
2021/08/22 05:00:42;;;;;;;12.90;7.03;;;19.50;87.00;;;;;;6249601;28;20523;-81
2021/08/22 05:03:44;;;;;;;10.27;6.65;;;19.50;87.60;;;;;;6249780;28;20496;-81
2021/08/22 05:06:47;;;;;;;8.77;6.67;;;19.50;86.40;;;;;;6250349;28;20504;-80
2021/08/22 05:09:48;;;;;;;7.68;6.28;;;19.60;86.40;;;;;;6251650;28;20502;-80
2021/08/22 05:12:50;;;;;;;8.68;6.20;;;19.60;86.20;;;;;;6251294;28;20427;-81
2021/08/22 05:15:54;;;;;;;10.50;6.65;;;19.70;85.90;;;;;;6251445;28;20443;-80
2021/08/22 05:18:55;;;;;;;8.60;6.47;;;19.60;85.60;;;;;;6252437;28;20438;-81
2021/08/22 05:21:59;;;;;;;11.40;7.35;;;19.70;86.00;;;;;;6252005;28;20990;-80
2021/08/22 05:25:01;;;;;;;12.80;7.60;;;19.60;85.80;;;;;;6251127;28;20898;-80
2021/08/22 05:28:03;;;;;;;13.38;8.27;;;19.60;86.30;;;;;;6252028;28;20530;-81
2021/08/22 05:31:04;;;;;;;10.40;7.03;;;19.70;86.10;;;;;;6260092;28;20433;-81
2021/08/22 05:34:06;;;;;;;10.47;6.97;;;19.70;86.20;;;;;;6269949;28;20437;-81
2021/08/22 05:37:10;;;;;;;11.95;7.43;;;19.70;86.60;;;;;;6276703;28;20413;-81
2021/08/22 05:40:12;;;;;;;10.47;7.10;;;19.80;86.20;;;;;;6276351;28;20510;-81
2021/08/22 05:43:14;;;;;;;15.02;8.70;;;19.80;85.70;;;;;;6275937;28;20443;-81
2021/08/22 05:46:15;;;;;;;18.20;10.10;;;19.80;86.30;;;;;;6275856;28;20465;-80
2021/08/22 05:49:17;;;;;;;13.80;9.23;;;19.70;87.20;;;;;;6275614;28;20417;-81
2021/08/22 05:52:21;;;;;;;12.13;8.65;;;19.70;88.00;;;;;;6275782;28;20930;-80
2021/08/22 05:55:22;;;;;;;11.68;8.75;;;19.80;87.70;;;;;;6275316;28;20494;-80
2021/08/22 05:58:25;;;;;;;19.80;10.25;;;19.90;87.50;;;;;;6275956;28;20853;-81
2021/08/22 06:01:26;;;;;;;20.05;9.48;;;19.90;87.50;;;;;;6275816;28;20986;-81
2021/08/22 06:04:28;;;;;;;14.80;9.95;;;20.00;86.80;;;;;;6252140;28;20470;-80
2021/08/22 06:07:32;;;;;;;17.43;10.10;;;20.10;86.80;;;;;;6231386;28;20498;-80
2021/08/22 06:10:34;;;;;;;15.93;9.25;;;20.10;87.10;;;;;;6244908;28;20839;-80
2021/08/22 06:13:36;;;;;;;13.10;9.32;;;20.20;86.70;;;;;;6251077;28;20415;-80
2021/08/22 06:16:37;;;;;;;14.38;8.73;;;20.30;86.70;;;;;;6250985;28;20411;-80
2021/08/22 06:19:39;;;;;;;11.23;7.68;;;20.40;86.20;;;;;;6250966;28;20469;-80
2021/08/22 06:22:43;;;;;;;13.70;8.87;;;20.30;86.30;;;;;;6252521;28;20463;-80
2021/08/22 06:25:44;;;;;;;8.73;7.40;;;20.50;86.60;;;;;;6251849;28;20522;-81
2021/08/22 06:28:46;;;;;;;12.18;8.07;;;20.50;86.10;;;;;;6252893;28;20493;-81
2021/08/22 06:31:48;;;;;;;11.63;8.05;;;20.70;86.50;;;;;;6253890;28;20411;-81
2021/08/22 06:34:50;;;;;;;10.45;7.43;;;20.50;86.40;;;;;;6253842;28;20440;-82
2021/08/22 06:37:53;;;;;;;11.93;8.73;;;20.50;86.00;;;;;;6265299;28;20489;-81
2021/08/22 06:40:55;;;;;;;13.95;9.20;;;20.50;86.40;;;;;;6277919;28;20422;-80
2021/08/22 06:43:57;;;;;;;8.88;7.75;;;20.50;86.00;;;;;;6277925;28;20430;-81
2021/08/22 06:46:59;;;;;;;12.77;8.13;;;20.60;86.70;;;;;;6276820;28;20446;-80
2021/08/22 06:50:01;;;;;;;12.90;7.63;;;20.60;86.10;;;;;;6277460;28;20465;-80
2021/08/22 06:53:05;;;;;;;10.70;8.75;;;21.00;86.30;;;;;;6276831;28;20411;-81
2021/08/22 06:56:07;;;;;;;10.97;7.80;;;20.80;86.30;;;;;;6276626;28;20418;-80
2021/08/22 06:59:08;;;;;;;12.93;7.18;;;21.00;85.00;;;;;;6276805;28;20411;-80
2021/08/22 07:02:11;;;;;;;12.38;8.43;;;21.00;85.10;;;;;;6276992;28;20427;-80
2021/08/22 07:05:14;;;;;;;13.15;8.95;;;21.10;85.50;;;;;;6275956;28;20478;-80
2021/08/22 07:08:17;;;;;;;9.63;8.60;;;21.30;85.90;;;;;;6275829;28;20454;-80
2021/08/22 07:11:19;;;;;;;9.02;6.90;;;21.50;84.60;;;;;;6278379;28;20403;-80
2021/08/22 07:14:21;;;;;;;11.07;7.38;;;21.70;83.80;;;;;;6278767;28;20465;-80
2021/08/22 07:17:22;;;;;;;9.45;7.18;;;21.80;84.40;;;;;;6273620;28;20411;-80
2021/08/22 07:20:24;;;;;;;9.85;7.22;;;22.10;83.40;;;;;;6272393;28;20426;-80
2021/08/22 07:23:27;;;;;;;11.57;8.83;;;22.20;83.70;;;;;;6263274;28;20555;-80
2021/08/22 07:26:29;;;;;;;8.43;7.45;;;22.20;82.00;;;;;;6264226;28;20480;-81
2021/08/22 07:29:31;;;;;;;14.63;7.28;;;22.30;82.90;;;;;;6250817;28;20629;-81
2021/08/22 07:32:33;;;;;;;9.33;7.97;;;22.40;81.70;;;;;;6249859;28;20411;-81
2021/08/22 07:35:35;;;;;;;9.48;7.20;;;22.40;82.90;;;;;;6250220;28;20550;-81
2021/08/22 07:38:38;;;;;;;10.00;7.90;;;22.50;82.80;;;;;;6252382;28;20467;-81
2021/08/22 07:41:40;;;;;;;8.50;7.45;;;22.60;82.10;;;;;;6252555;28;20935;-81
2021/08/22 07:44:42;;;;;;;9.63;7.63;;;22.60;81.50;;;;;;6250898;28;20502;-81
2021/08/22 07:47:44;;;;;;;8.75;7.28;;;22.60;81.80;;;;;;6250891;28;20473;-81
2021/08/22 07:50:46;;;;;;;18.05;9.05;;;22.70;81.10;;;;;;6251424;28;20442;-80
2021/08/22 07:53:49;;;;;;;9.60;6.82;;;22.80;81.90;;;;;;6251355;28;20434;-81
2021/08/22 07:56:51;;;;;;;8.52;7.03;;;23.00;80.20;;;;;;6251023;28;20446;-81
2021/08/22 07:59:52;;;;;;;8.25;7.55;;;23.20;79.60;;;;;;6251613;28;20444;-81
2021/08/22 08:02:54;;;;;;;11.00;7.28;;;23.20;79.70;;;;;;6251842;28;20471;-81
2021/08/22 08:05:56;;;;;;;7.57;6.60;;;23.20;79.50;;;;;;6251118;28;20585;-81
2021/08/22 08:09:00;;;;;;;10.50;6.97;;;23.20;79.40;;;;;;6251704;28;20497;-81
2021/08/22 08:12:02;;;;;;;11.13;6.65;;;23.10;79.50;;;;;;6250881;28;20415;-81
2021/08/22 08:15:05;;;;;;;10.05;7.75;;;23.20;79.30;;;;;;6249216;28;20848;-81
2021/08/22 08:18:06;;;;;;;7.35;6.55;;;23.40;80.30;;;;;;6249975;28;20573;-81
2021/08/22 08:21:08;;;;;;;9.88;7.18;;;23.60;78.30;;;;;;6251153;28;20469;-83
2021/08/22 08:24:12;;;;;;;7.60;6.63;;;23.70;77.00;;;;;;6251333;28;20414;-81
2021/08/22 08:27:13;;;;;;;8.48;7.68;;;23.50;78.10;;;;;;6228768;28;20417;-81
2021/08/22 08:30:15;;;;;;;9.07;7.13;;;23.60;77.00;;;;;;6251408;28;20923;-80
2021/08/22 08:33:17;;;;;;;8.48;7.63;;;23.70;76.50;;;;;;6249919;28;20438;-82
2021/08/22 08:36:19;;;;;;;9.43;7.32;;;23.70;75.90;;;;;;6251291;28;20426;-81
2021/08/22 08:39:22;;;;;;;8.18;7.00;;;23.70;75.60;;;;;;6248202;28;20414;-80
2021/08/22 08:42:24;;;;;;;9.82;6.95;;;23.70;75.90;;;;;;6248994;28;20925;-81
2021/08/22 08:45:32;;;;;;;9.70;6.95;;;23.60;74.90;;;;;;6249596;28;20477;-81
2021/08/22 08:48:36;;;;;;;9.70;7.15;;;23.60;75.10;;;;;;6250474;28;20474;-81
2021/08/22 08:51:48;;;;;;;8.85;6.80;;;23.60;75.30;;;;;;6250600;28;20469;-81
2021/08/22 08:54:52;;;;;;;8.00;6.43;;;23.70;74.30;;;;;;6248507;28;20516;-81
2021/08/22 08:57:55;;;;;;;9.23;6.63;;;23.80;75.10;;;;;;6249459;28;20565;-82
2021/08/22 09:00:57;;;;;;;7.60;6.78;;;23.70;74.40;;;;;;6248832;28;20418;-82
2021/08/22 09:04:14;;;;;;;7.57;6.80;;;23.70;74.60;;;;;;6246900;28;20433;-78
2021/08/22 09:07:52;;;;;;;10.35;6.85;;;23.60;75.70;;;;;;6247473;28;20487;-78
2021/08/22 09:11:27;;;;;;;11.15;9.05;;;23.50;75.60;;;;;;6246939;28;20924;-78
2021/08/22 09:15:21;;;;;;;10.15;7.75;;;23.40;76.10;;;;;;6246051;28;20509;-79
2021/08/22 09:19:14;;;;;;;10.80;4.47;;;23.20;75.40;;;;;;6245331;28;20518;-77
2021/08/22 09:22:57;;;;;;;16.80;6.13;;;22.20;78.20;;;;;;6220994;28;20497;-78
2021/08/22 09:26:36;;;;;;;40.40;7.65;;;21.20;81.90;;;;;;6240475;28;20506;-78
2021/08/22 09:30:26;;;;;;;14.05;7.00;;;20.70;84.60;;;;;;6238524;28;20423;-80
2021/08/22 09:34:06;;;;;;;14.50;5.85;;;20.30;86.00;;;;;;6231490;28;20470;-79
2021/08/22 09:37:51;;;;;;;13.68;6.10;;;20.00;86.80;;;;;;6233701;28;20503;-79
2021/08/22 09:41:26;;;;;;;15.68;5.90;;;20.00;87.80;;;;;;6232625;28;20524;-78
2021/08/22 09:45:05;;;;;;;10.90;5.00;;;19.80;87.00;;;;;;6195308;28;20422;-79
2021/08/22 09:48:41;;;;;;;24.52;6.75;;;19.50;86.30;;;;;;6232129;28;20500;-79
2021/08/22 09:52:22;;;;;;;8.43;6.00;;;19.20;87.80;;;;;;6241418;28;20419;-80
2021/08/22 09:56:13;;;;;;;12.02;7.10;;;19.00;88.20;;;;;;6246378;28;20428;-79
2021/08/22 09:59:48;;;;;;;9.47;6.10;;;18.90;89.40;;;;;;6211797;28;20442;-79
2021/08/22 10:03:35;;;;;;;12.13;6.70;;;19.00;89.30;;;;;;6247446;28;20514;-80
2021/08/22 10:06:48;;;;;;;7.93;5.43;;;19.10;90.00;;;;;;6246649;28;20434;-79
2021/08/22 10:09:53;;;;;;;8.38;4.97;;;19.20;89.30;;;;;;6247370;28;20423;-79
2021/08/22 10:12:55;;;;;;;4.50;3.80;;;19.20;88.70;;;;;;6242280;28;20429;-79
2021/08/22 10:15:57;;;;;;;8.10;5.13;;;19.10;88.50;;;;;;6222077;28;20507;-79
2021/08/22 10:19:04;;;;;;;10.88;7.25;;;19.10;89.30;;;;;;6223200;28;20501;-79
2021/08/22 10:22:12;;;;;;;6.95;5.15;;;19.20;90.20;;;;;;6223660;28;20432;-80
2021/08/22 10:25:19;;;;;;;8.45;5.88;;;19.20;90.20;;;;;;6222750;28;20421;-80
2021/08/22 10:29:03;;;;;;;7.53;5.70;;;19.40;90.30;;;;;;6244022;28;20422;-80
2021/08/22 10:32:12;;;;;;;7.40;5.63;;;19.60;90.20;;;;;;6249232;28;21108;-80
2021/08/22 10:35:20;;;;;;;7.50;5.75;;;21.00;89.80;;;;;;6248333;28;20429;-80
2021/08/22 10:38:26;;;;;;;5.83;5.23;;;19.70;90.00;;;;;;6248662;28;20509;-78
2021/08/22 10:41:35;;;;;;;6.80;4.67;;;19.80;89.50;;;;;;6248707;28;20415;-80
2021/08/22 10:44:41;;;;;;;8.70;5.78;;;19.90;89.30;;;;;;6249442;28;20411;-80
2021/08/22 10:47:44;;;;;;;8.95;5.50;;;19.90;88.60;;;;;;6253493;28;20855;-80
2021/08/22 10:51:09;;;;;;;16.08;7.72;;;19.90;88.40;;;;;;6253686;28;20438;-79
2021/08/22 10:54:21;;;;;;;14.75;6.80;;;19.80;88.40;;;;;;6253818;28;20469;-79
2021/08/22 10:57:52;;;;;;;15.63;8.05;;;19.80;89.00;;;;;;6253988;28;20509;-80
2021/08/22 11:01:17;;;;;;;22.48;9.88;;;19.70;88.80;;;;;;6254308;28;20434;-80
2021/08/22 11:04:22;;;;;;;11.87;8.33;;;19.70;89.40;;;;;;6253036;28;20516;-79
2021/08/22 11:07:25;;;;;;;13.32;8.02;;;19.80;89.40;;;;;;6258519;28;20490;-80
2021/08/22 11:10:28;;;;;;;22.00;10.57;;;19.80;89.70;;;;;;6264360;28;20429;-79
2021/08/22 11:13:31;;;;;;;15.10;10.07;;;19.90;89.50;;;;;;6269439;28;20550;-79
2021/08/22 11:16:41;;;;;;;17.27;9.55;;;19.90;90.00;;;;;;6253511;28;20421;-80
2021/08/22 11:19:43;;;;;;;17.70;11.00;;;19.90;89.20;;;;;;6253680;28;20546;-79
2021/08/22 11:22:45;;;;;;;20.57;12.47;;;19.90;89.80;;;;;;6253603;28;20442;-79
2021/08/22 11:25:51;;;;;;;28.45;14.02;;;19.90;90.30;;;;;;6249559;28;20504;-78
2021/08/22 11:28:56;;;;;;;27.07;14.97;;;20.00;90.00;;;;;;6249222;28;20415;-78
2021/08/22 11:32:03;;;;;;;26.48;16.55;;;20.10;90.20;;;;;;6247228;28;20504;-79
2021/08/22 11:35:13;;;;;;;21.77;14.63;;;20.30;90.20;;;;;;6250500;28;20423;-78
2021/08/22 11:38:16;;;;;;;18.52;13.45;;;20.50;90.10;;;;;;6251398;28;20513;-79
2021/08/22 11:41:19;;;;;;;19.92;14.02;;;20.60;90.00;;;;;;6252352;28;20553;-79
2021/08/22 11:44:23;;;;;;;18.42;13.43;;;20.60;89.50;;;;;;6251401;28;20425;-79
2021/08/22 11:47:24;;;;;;;20.75;14.38;;;20.70;89.10;;;;;;6252917;28;20418;-78
2021/08/22 11:50:28;;;;;;;18.55;13.43;;;20.80;89.10;;;;;;6252426;28;20496;-79
2021/08/22 11:53:32;;;;;;;17.48;12.32;;;20.90;88.20;;;;;;6250325;28;20784;-79
2021/08/22 11:56:35;;;;;;;16.08;12.50;;;20.90;88.60;;;;;;6249189;28;20891;-79
2021/08/22 11:59:37;;;;;;;18.37;12.93;;;21.00;88.60;;;;;;6249446;28;20418;-79
2021/08/22 12:02:39;;;;;;;18.70;13.48;;;21.10;87.80;;;;;;6250391;28;20466;-79
2021/08/22 12:05:55;;;;;;;15.52;12.57;;;21.10;87.60;;;;;;6249737;28;20498;-79
2021/08/22 12:08:57;;;;;;;18.88;13.75;;;21.10;87.40;;;;;;6249477;28;20465;-79
2021/08/22 12:12:01;;;;;;;16.08;13.65;;;21.00;87.80;;;;;;6244547;28;20475;-78
2021/08/22 12:15:08;;;;;;;12.73;10.25;;;21.00;87.40;;;;;;6247685;28;20509;-79
2021/08/22 12:18:29;;;;;;;13.15;11.77;;;21.00;87.20;;;;;;6252426;28;20901;-79
2021/08/22 12:21:34;;;;;;;13.47;10.23;;;21.00;87.00;;;;;;6250338;28;20411;-79
2021/08/22 12:24:36;;;;;;;13.75;10.63;;;21.00;87.50;;;;;;6249071;28;21395;-79
2021/08/22 12:27:40;;;;;;;10.13;8.18;;;21.30;87.80;;;;;;6249360;28;20419;-79
2021/08/22 12:30:42;;;;;;;9.65;8.65;;;21.40;86.90;;;;;;6253049;28;20434;-80
2021/08/22 12:33:45;;;;;;;8.63;7.67;;;21.50;86.10;;;;;;6257329;28;20407;-79
2021/08/22 12:36:48;;;;;;;9.13;7.57;;;21.50;86.10;;;;;;6252665;28;20912;-79
2021/08/22 12:39:56;;;;;;;8.57;7.30;;;21.60;86.20;;;;;;6249462;28;20505;-80
2021/08/22 12:43:00;;;;;;;8.88;6.43;;;21.60;86.10;;;;;;6254018;28;20441;-79
2021/08/22 12:46:01;;;;;;;8.27;7.15;;;21.70;85.70;;;;;;6256043;28;20435;-79
2021/08/22 12:49:04;;;;;;;9.30;7.20;;;21.90;85.10;;;;;;6256186;28;20482;-80
2021/08/22 12:52:09;;;;;;;8.02;6.32;;;21.90;85.60;;;;;;6255152;28;20675;-80
2021/08/22 12:55:12;;;;;;;7.30;6.15;;;22.00;84.80;;;;;;6255606;28;20422;-81
2021/08/22 12:58:15;;;;;;;6.45;5.75;;;22.10;85.60;;;;;;6257317;28;20482;-80
2021/08/22 13:01:17;;;;;;;8.35;5.82;;;22.30;85.90;;;;;;6255447;28;20423;-80
2021/08/22 13:04:20;;;;;;;6.10;5.50;;;22.40;84.10;;;;;;6256696;28;20602;-80
2021/08/22 13:07:22;;;;;;;5.68;5.18;;;22.30;83.30;;;;;;6255160;28;20896;-80
2021/08/22 13:10:24;;;;;;;5.47;4.97;;;22.20;82.80;;;;;;6256943;28;20434;-80
2021/08/22 13:13:29;;;;;;;7.00;5.40;;;22.10;82.60;;;;;;6255954;28;20482;-81
2021/08/22 13:16:30;;;;;;;5.43;4.93;;;22.00;82.90;;;;;;6251673;28;20480;-80
2021/08/22 13:19:32;;;;;;;5.78;5.18;;;21.90;82.80;;;;;;6257040;28;20438;-80
2021/08/22 13:22:34;;;;;;;6.50;4.25;;;21.90;82.10;;;;;;6261408;28;20565;-79
2021/08/22 13:25:36;;;;;;;6.00;4.93;;;21.80;81.80;;;;;;6257868;28;20848;-80
2021/08/22 13:28:40;;;;;;;5.60;4.97;;;21.70;81.90;;;;;;6255484;28;20422;-80
2021/08/22 13:31:42;;;;;;;5.70;5.10;;;21.50;82.90;;;;;;6251592;28;20418;-80
2021/08/22 13:34:44;;;;;;;4.90;4.32;;;21.50;83.30;;;;;;6238157;28;20799;-80
2021/08/22 13:37:46;;;;;;;4.47;4.07;;;21.60;83.40;;;;;;6232114;28;20488;-80
2021/08/22 13:40:48;;;;;;;5.27;4.27;;;21.70;83.30;;;;;;6231392;28;20444;-80
2021/08/22 13:43:52;;;;;;;5.35;4.18;;;21.80;83.60;;;;;;6232001;28;20417;-81
2021/08/22 13:46:54;;;;;;;5.70;5.15;;;21.90;82.80;;;;;;6222616;28;20533;-79
2021/08/22 13:49:55;;;;;;;6.15;4.35;;;22.00;83.00;;;;;;6221828;28;20526;-79
2021/08/22 13:52:58;;;;;;;5.15;4.65;;;22.00;82.10;;;;;;6226952;28;20462;-79
2021/08/22 13:56:00;;;;;;;7.03;5.10;;;22.00;81.00;;;;;;6243993;28;20498;-78
2021/08/22 13:59:03;;;;;;;5.03;4.53;;;21.80;81.90;;;;;;6244127;28;20525;-79
2021/08/22 14:02:05;;;;;;;5.60;5.00;;;21.70;82.20;;;;;;6244335;28;20427;-79
2021/08/22 14:05:07;;;;;;;7.65;5.05;;;21.60;82.20;;;;;;6243735;28;20415;-79
2021/08/22 14:08:09;;;;;;;5.50;5.00;;;21.50;82.90;;;;;;6243477;28;20492;-78
2021/08/22 14:11:11;;;;;;;5.57;4.75;;;21.40;83.10;;;;;;6244339;28;20610;-78
2021/08/22 14:14:14;;;;;;;7.63;4.55;;;21.30;82.80;;;;;;6244555;28;20480;-80
2021/08/22 14:17:16;;;;;;;7.88;4.95;;;21.10;82.50;;;;;;6243907;28;20457;-78
2021/08/22 14:20:18;;;;;;;7.00;5.10;;;20.80;83.00;;;;;;6246732;28;20415;-79
2021/08/22 14:23:20;;;;;;;15.32;6.03;;;20.50;84.50;;;;;;6249072;28;20417;-78
2021/08/22 14:26:22;;;;;;;9.82;5.57;;;20.20;86.00;;;;;;6249298;28;20948;-78
2021/08/22 14:29:25;;;;;;;10.57;5.03;;;20.00;87.00;;;;;;6249160;28;20497;-78
2021/08/22 14:32:27;;;;;;;8.38;5.63;;;20.00;87.00;;;;;;6238092;28;20511;-79
2021/08/22 14:35:29;;;;;;;8.98;6.22;;;19.80;87.80;;;;;;6245485;28;20572;-79
2021/08/22 14:38:31;;;;;;;5.33;4.73;;;19.90;88.30;;;;;;6249027;28;20615;-78
2021/08/22 14:41:32;;;;;;;7.45;5.05;;;19.70;87.00;;;;;;6249058;28;20578;-78
2021/08/22 14:44:37;;;;;;;6.53;4.97;;;19.60;87.60;;;;;;6248374;28;20569;-78
2021/08/22 14:47:39;;;;;;;16.23;6.65;;;19.40;87.90;;;;;;6248710;28;20942;-79
2021/08/22 14:50:41;;;;;;;9.10;4.97;;;19.40;88.60;;;;;;6248884;28;20512;-78
2021/08/22 14:53:43;;;;;;;10.30;5.70;;;19.30;87.90;;;;;;6248486;28;20497;-78
2021/08/22 14:56:45;;;;;;;15.50;6.50;;;19.20;88.20;;;;;;6248320;28;20501;-78
2021/08/22 14:59:48;;;;;;;14.88;5.50;;;19.00;88.00;;;;;;6248437;28;20935;-79
2021/08/22 15:02:50;;;;;;;8.50;5.63;;;18.90;87.80;;;;;;6248007;28;20521;-78
2021/08/22 15:05:52;;;;;;;16.23;6.57;;;18.90;88.00;;;;;;6248292;28;20504;-78
2021/08/22 15:08:54;;;;;;;13.68;5.50;;;18.80;88.20;;;;;;6248281;28;20419;-78
2021/08/22 15:11:56;;;;;;;11.53;5.00;;;18.60;88.10;;;;;;6248174;28;20422;-77
2021/08/22 15:15:00;;;;;;;12.55;5.22;;;18.60;87.90;;;;;;6248653;28;20433;-81
2021/08/22 15:18:01;;;;;;;8.57;4.80;;;18.40;87.40;;;;;;6251052;28;21042;-79
2021/08/22 15:21:04;;;;;;;18.08;7.15;;;18.30;88.30;;;;;;6230873;28;20483;-80
2021/08/22 15:24:08;;;;;;;12.77;6.68;;;18.30;89.10;;;;;;6228628;28;20420;-80
2021/08/22 15:27:09;;;;;;;14.70;8.38;;;18.20;89.40;;;;;;6227541;28;20870;-78
2021/08/22 15:30:14;;;;;;;10.30;6.73;;;18.30;90.00;;;;;;6225336;28;20491;-80
2021/08/22 15:33:16;;;;;;;8.18;6.50;;;18.30;89.70;;;;;;6224211;28;20416;-79
2021/08/22 15:36:18;;;;;;;9.77;6.15;;;18.30;89.30;;;;;;6227142;28;20472;-80
2021/08/22 15:39:20;;;;;;;9.90;6.32;;;18.30;89.60;;;;;;6224864;28;20784;-80
2021/08/22 15:42:22;;;;;;;10.70;6.82;;;18.40;89.70;;;;;;6224970;28;20925;-80
2021/08/22 15:45:26;;;;;;;7.00;5.85;;;18.40;90.00;;;;;;6223807;28;20413;-80
2021/08/22 15:48:27;;;;;;;6.85;5.35;;;18.40;89.80;;;;;;6225322;28;20475;-81
2021/08/22 15:51:29;;;;;;;8.98;6.38;;;18.40;89.40;;;;;;6225309;28;20424;-81
2021/08/22 15:54:31;;;;;;;6.20;4.87;;;18.50;89.40;;;;;;6226617;28;20789;-81
2021/08/22 15:57:34;;;;;;;7.88;4.97;;;18.60;89.10;;;;;;6225857;28;20496;-81